createdAt,value
2022-11-02T00:01:48.657Z,15.91
2022-11-02T00:04:15.561Z,15.96
2022-11-02T00:06:42.337Z,16.19
2022-11-02T00:09:09.168Z,16.31
2022-11-02T00:11:37.444Z,16.17
2022-11-02T00:14:05.379Z,16.14
2022-11-02T00:16:33.446Z,16.21
2022-11-02T00:19:01.438Z,15.95
2022-11-02T00:21:28.696Z,15.92
2022-11-02T00:23:57.478Z,15.76
2022-11-02T00:26:25.056Z,15.69
2022-11-02T00:28:52.984Z,15.55
2022-11-02T00:31:19.812Z,15.46
2022-11-02T00:33:46.483Z,15.42
2022-11-02T00:36:13.474Z,14.97
2022-11-02T00:38:40.438Z,14.57
2022-11-02T00:41:07.168Z,14.06
2022-11-02T00:43:33.911Z,13.78
2022-11-02T00:46:01.504Z,13.81
2022-11-02T00:48:28.638Z,14.45
2022-11-02T00:50:55.899Z,14.94
2022-11-02T00:53:25.539Z,15.32
2022-11-02T00:55:54.118Z,15.04
2022-11-02T00:58:21.806Z,15.43
2022-11-02T01:00:50.418Z,15.40
2022-11-02T01:03:17.334Z,15.44
2022-11-02T01:05:44.134Z,15.29
2022-11-02T01:08:11.518Z,15.51
2022-11-02T01:10:40.636Z,15.44
2022-11-02T01:13:10.847Z,15.32
2022-11-02T01:15:40.127Z,15.29
2022-11-02T01:18:07.414Z,15.31
2022-11-02T01:20:34.312Z,15.27
2022-11-02T01:23:01.227Z,15.28
2022-11-02T01:25:27.957Z,15.30
2022-11-02T01:27:54.814Z,14.87
2022-11-02T01:30:21.705Z,14.63
2022-11-02T01:32:48.573Z,14.28
2022-11-02T01:35:16.729Z,13.68
2022-11-02T01:37:43.553Z,13.81
2022-11-02T01:40:11.001Z,13.34
2022-11-02T01:42:37.708Z,13.28
2022-11-02T01:45:04.984Z,13.80
2022-11-02T01:47:37.969Z,13.64
2022-11-02T01:50:08.499Z,13.78
2022-11-02T01:52:37.827Z,13.59
2022-11-02T01:55:13.356Z,13.86
2022-11-02T01:57:44.470Z,14.28
2022-11-02T02:00:14.494Z,14.15
2022-11-02T02:02:50.571Z,14.42
2022-11-02T02:05:21.033Z,14.59
2022-11-02T02:07:51.300Z,14.67
2022-11-02T02:10:18.556Z,14.63
2022-11-02T02:12:45.811Z,14.57
2022-11-02T02:15:17.087Z,14.63
2022-11-02T02:17:50.149Z,14.71
2022-11-02T02:20:44.855Z,14.13
2022-11-02T02:23:48.883Z,13.58
2022-11-02T02:26:52.441Z,14.00
2022-11-02T02:29:28.509Z,14.14
2022-11-02T02:32:13.605Z,14.28
2022-11-02T02:35:09.086Z,14.49
2022-11-02T02:37:51.389Z,14.46
2022-11-02T02:40:33.582Z,14.55
2022-11-02T02:43:32.870Z,14.48
2022-11-02T02:46:07.446Z,14.44
2022-11-02T02:48:36.165Z,14.37
2022-11-02T02:51:08.137Z,14.36
2022-11-02T02:53:59.548Z,14.45
2022-11-02T02:56:32.042Z,14.35
2022-11-02T02:59:03.158Z,14.13
2022-11-02T03:01:31.195Z,14.17
2022-11-02T03:03:58.479Z,14.24
2022-11-02T03:06:29.955Z,14.18
2022-11-02T03:09:08.693Z,14.27
2022-11-02T03:11:46.963Z,14.26
2022-11-02T03:14:38.825Z,14.09
2022-11-02T03:17:14.147Z,13.97
2022-11-02T03:20:15.533Z,14.12
2022-11-02T03:22:42.260Z,13.97
2022-11-02T03:25:28.886Z,14.11
2022-11-02T03:28:37.281Z,13.84
2022-11-02T03:31:17.301Z,14.05
2022-11-02T03:33:51.867Z,13.87
2022-11-02T03:36:23.033Z,13.95
2022-11-02T03:38:53.168Z,13.86
2022-11-02T03:41:23.437Z,13.75
2022-11-02T03:43:58.525Z,13.97
2022-11-02T03:46:27.701Z,13.75
2022-11-02T03:48:56.877Z,13.79
2022-11-02T03:51:26.671Z,13.84
2022-11-02T03:54:05.260Z,13.89
2022-11-02T03:56:46.259Z,13.77
2022-11-02T03:59:14.217Z,13.82
2022-11-02T04:01:47.351Z,13.85
2022-11-02T04:04:14.792Z,13.80
2022-11-02T04:06:45.134Z,13.76
2022-11-02T04:09:12.465Z,13.76
2022-11-02T04:11:58.274Z,13.68
2022-11-02T04:14:39.042Z,13.73
2022-11-02T04:20:09.405Z,13.77
2022-11-02T04:22:55.779Z,13.67
2022-11-02T04:25:22.806Z,13.59
2022-11-02T04:28:09.832Z,13.15
2022-11-02T04:30:45.417Z,13.46
2022-11-02T04:33:31.409Z,13.57
2022-11-02T04:36:18.541Z,13.69
2022-11-02T04:38:50.971Z,13.66
2022-11-02T04:41:43.785Z,13.57
2022-11-02T04:44:17.506Z,13.55
2022-11-02T04:46:51.620Z,13.41
2022-11-02T04:49:19.561Z,13.48
2022-11-02T04:51:49.695Z,13.43
2022-11-02T04:54:19.245Z,12.18
2022-11-02T04:56:50.354Z,11.80
2022-11-02T04:59:18.799Z,12.01
2022-11-02T05:01:46.080Z,12.77
2022-11-02T05:04:14.654Z,13.17
2022-11-02T05:06:42.156Z,13.19
2022-11-02T05:09:10.242Z,13.41
2022-11-02T05:11:41.789Z,13.48
2022-11-02T05:14:08.758Z,13.40
2022-11-02T05:16:35.778Z,13.47
2022-11-02T05:19:04.577Z,13.38
2022-11-02T05:21:34.112Z,13.32
2022-11-02T05:24:00.967Z,13.38
2022-11-02T05:26:27.868Z,13.23
2022-11-02T05:28:54.625Z,13.41
2022-11-02T05:31:21.562Z,13.29
2022-11-02T05:33:49.527Z,13.40
2022-11-02T05:36:20.348Z,13.74
2022-11-02T05:38:54.518Z,13.85
2022-11-02T05:41:23.438Z,13.92
2022-11-02T05:43:52.845Z,14.19
2022-11-02T05:46:21.315Z,13.77
2022-11-02T05:48:47.975Z,14.11
2022-11-02T05:51:14.927Z,13.91
2022-11-02T05:53:41.996Z,14.08
2022-11-02T05:56:11.390Z,14.19
2022-11-02T05:58:38.245Z,14.10
2022-11-02T06:01:07.499Z,13.86
2022-11-02T06:03:34.893Z,14.11
2022-11-02T06:06:05.663Z,13.30
2022-11-02T06:08:34.373Z,13.56
2022-11-02T06:11:12.496Z,13.75
2022-11-02T06:13:40.746Z,13.33
2022-11-02T06:16:09.602Z,13.18
2022-11-02T06:18:37.062Z,13.51
2022-11-02T06:21:04.247Z,13.55
2022-11-02T06:23:31.046Z,13.48
2022-11-02T06:25:59.965Z,13.84
2022-11-02T06:28:28.046Z,14.30
2022-11-02T06:30:57.317Z,14.63
2022-11-02T06:33:24.196Z,14.76
2022-11-02T06:35:52.827Z,13.77
2022-11-02T06:38:20.086Z,13.92
2022-11-02T06:40:55.041Z,14.61
2022-11-02T06:43:23.145Z,14.54
2022-11-02T06:45:50.154Z,15.09
2022-11-02T06:48:17.131Z,14.60
2022-11-02T06:50:44.133Z,14.36
2022-11-02T06:53:11.856Z,14.72
2022-11-02T06:55:38.891Z,15.35
2022-11-02T06:58:05.963Z,15.31
2022-11-02T07:00:33.124Z,15.05
2022-11-02T07:03:01.332Z,14.96
2022-11-02T07:05:28.619Z,14.14
2022-11-02T07:07:55.996Z,14.42
2022-11-02T07:10:23.219Z,15.13
2022-11-02T07:12:59.110Z,14.83
2022-11-02T07:15:26.354Z,15.52
2022-11-02T07:17:53.738Z,15.68
2022-11-02T07:20:20.953Z,15.68
2022-11-02T07:22:59.389Z,16.18
2022-11-02T07:25:28.573Z,15.37
2022-11-02T07:27:55.261Z,16.04
2022-11-02T07:30:22.662Z,16.09
2022-11-02T07:32:49.353Z,15.84
2022-11-02T07:35:17.615Z,15.93
2022-11-02T07:37:45.084Z,16.23
2022-11-02T07:40:14.045Z,16.72
2022-11-02T07:42:45.745Z,16.80
2022-11-02T07:45:12.794Z,16.60
2022-11-02T07:47:45.763Z,16.37
2022-11-02T07:50:14.600Z,17.43
2022-11-02T07:52:49.549Z,17.51
2022-11-02T07:55:19.011Z,17.19
2022-11-02T07:58:03.648Z,17.51
2022-11-02T08:00:33.607Z,17.15
2022-11-02T08:03:02.568Z,17.73
2022-11-02T08:05:31.499Z,17.61
2022-11-02T08:08:04.044Z,17.88
2022-11-02T08:10:36.936Z,18.23
2022-11-02T08:13:09.601Z,19.37
2022-11-02T08:15:37.177Z,18.46
2022-11-02T08:18:06.451Z,19.21
2022-11-02T08:20:36.200Z,19.33
2022-11-02T08:23:04.988Z,19.51
2022-11-02T08:25:32.542Z,19.00
2022-11-02T08:28:00.476Z,19.51
2022-11-02T08:30:29.621Z,20.52
2022-11-02T08:33:03.699Z,19.69
2022-11-02T08:35:30.799Z,20.38
2022-11-02T08:37:59.876Z,20.71
2022-11-02T08:40:27.354Z,20.09
2022-11-02T08:42:58.122Z,20.61
2022-11-02T08:45:25.959Z,20.61
2022-11-02T08:47:53.189Z,20.58
2022-11-02T08:50:20.378Z,21.16
2022-11-02T08:52:47.163Z,21.32
2022-11-02T08:55:14.196Z,20.90
2022-11-02T08:57:47.412Z,20.78
2022-11-02T09:00:15.397Z,21.10
2022-11-02T09:02:42.401Z,21.81
2022-11-02T09:05:09.717Z,21.62
2022-11-02T09:07:37.266Z,21.79
2022-11-02T09:10:04.653Z,22.53
2022-11-02T09:12:31.443Z,22.46
2022-11-02T09:14:58.261Z,22.54
2022-11-02T09:17:25.006Z,22.16
2022-11-02T09:19:51.870Z,22.70
2022-11-02T09:22:18.851Z,22.34
2022-11-02T09:24:45.541Z,22.08
2022-11-02T09:27:12.502Z,22.16
2022-11-02T09:29:39.251Z,23.21
2022-11-02T09:32:06.067Z,23.61
2022-11-02T09:34:33.756Z,23.89
2022-11-02T09:37:00.542Z,23.29
2022-11-02T09:39:27.419Z,23.60
2022-11-02T09:42:12.760Z,22.86
2022-11-02T09:45:01.693Z,22.78
2022-11-02T09:50:42.015Z,23.28
2022-11-02T09:53:14.825Z,23.28
2022-11-02T09:55:52.331Z,24.23
2022-11-02T09:58:25.924Z,24.05
2022-11-02T10:01:01.610Z,23.67
2022-11-02T10:03:40.433Z,23.84
2022-11-02T10:06:23.611Z,23.80
2022-11-02T10:09:05.679Z,24.28
2022-11-02T10:11:57.856Z,23.89
2022-11-02T10:14:36.835Z,24.07
2022-11-02T10:17:22.270Z,24.69
2022-11-02T10:19:55.697Z,24.80
2022-11-02T10:22:28.802Z,24.93
2022-11-02T10:24:57.297Z,24.91
2022-11-02T10:27:30.540Z,25.37
2022-11-02T10:30:11.504Z,25.49
2022-11-02T10:32:40.464Z,24.93
2022-11-02T10:35:51.463Z,25.34
2022-11-02T10:38:32.290Z,25.89
2022-11-02T10:41:06.563Z,25.90
2022-11-02T10:43:52.236Z,25.69
2022-11-02T10:46:27.853Z,25.92
2022-11-02T10:49:06.477Z,26.15
2022-11-02T10:51:33.878Z,26.30
2022-11-02T10:54:00.680Z,26.13
2022-11-02T10:56:33.705Z,26.34
2022-11-02T10:59:03.133Z,25.96
2022-11-02T11:01:31.725Z,26.21
2022-11-02T11:04:03.058Z,26.32
2022-11-02T11:06:39.635Z,26.50
2022-11-02T11:09:21.262Z,26.53
2022-11-02T11:11:59.294Z,26.89
2022-11-02T11:20:24.462Z,27.55
2022-11-02T11:23:10.474Z,27.83
2022-11-02T11:25:37.802Z,27.81
2022-11-02T11:28:22.639Z,27.61
2022-11-02T11:31:03.106Z,27.99
2022-11-02T11:33:30.966Z,28.35
2022-11-02T11:35:57.664Z,28.57
2022-11-02T11:38:27.371Z,28.93
2022-11-02T11:40:58.677Z,29.12
2022-11-02T11:43:38.453Z,29.43
2022-11-02T11:46:08.301Z,29.92
2022-11-02T11:48:40.270Z,30.49
2022-11-02T11:51:36.716Z,30.82
2022-11-02T11:54:18.215Z,31.38
2022-11-02T11:56:46.886Z,31.44
2022-11-02T11:59:26.755Z,31.08
2022-11-02T12:01:57.555Z,30.64
2022-11-02T12:04:29.586Z,30.62
2022-11-02T12:07:32.719Z,31.73
2022-11-02T12:10:17.986Z,31.71
2022-11-02T12:13:05.059Z,32.92
2022-11-02T12:15:58.716Z,33.63
2022-11-02T12:18:44.816Z,33.72
2022-11-02T12:21:39.705Z,33.59
2022-11-02T12:24:25.639Z,33.67
2022-11-02T12:27:12.142Z,34.46
2022-11-02T12:30:06.662Z,34.68
2022-11-02T12:32:52.007Z,34.51
2022-11-02T12:35:44.616Z,34.71
2022-11-02T12:38:38.672Z,35.37
2022-11-02T12:41:12.724Z,35.83
2022-11-02T12:43:52.880Z,34.58
2022-11-02T12:46:44.597Z,35.82
2022-11-02T12:49:27.385Z,35.84
2022-11-02T12:52:30.548Z,34.91
2022-11-02T12:55:03.040Z,36.31
2022-11-02T12:57:36.298Z,36.49
2022-11-02T13:00:08.606Z,35.48
2022-11-02T13:02:47.064Z,36.26
2022-11-02T13:05:18.907Z,36.72
2022-11-02T13:08:07.674Z,34.65
2022-11-02T13:10:44.945Z,35.49
2022-11-02T13:13:17.822Z,35.91
2022-11-02T13:15:48.686Z,36.04
2022-11-02T13:18:24.477Z,35.13
2022-11-02T13:20:56.286Z,34.71
2022-11-02T13:23:43.406Z,34.63
2022-11-02T13:26:33.938Z,34.17
2022-11-02T13:29:15.913Z,34.71
2022-11-02T13:31:51.870Z,34.33
2022-11-02T13:34:31.657Z,33.93
2022-11-02T13:37:02.755Z,34.17
2022-11-02T13:39:38.547Z,33.65
2022-11-02T13:42:23.130Z,33.10
2022-11-02T13:45:15.358Z,33.26
2022-11-02T13:48:29.725Z,33.52
2022-11-02T13:51:01.181Z,33.40
2022-11-02T13:53:34.033Z,32.73
2022-11-02T13:56:08.598Z,31.90
2022-11-02T13:58:46.921Z,30.79
2022-11-02T14:01:17.842Z,30.25
2022-11-02T14:04:07.796Z,30.15
2022-11-02T14:06:58.046Z,29.21
2022-11-02T14:09:30.911Z,29.07
2022-11-02T14:12:12.665Z,28.98
2022-11-02T14:14:39.494Z,29.04
2022-11-02T14:17:14.554Z,28.83
2022-11-02T14:19:44.506Z,28.42
2022-11-02T14:22:17.263Z,28.15
2022-11-02T14:24:48.275Z,28.43
2022-11-02T14:27:19.208Z,28.48
2022-11-02T14:29:45.933Z,28.06
2022-11-02T14:32:26.681Z,28.46
2022-11-02T14:35:12.282Z,28.55
2022-11-02T14:38:07.251Z,28.31
2022-11-02T14:40:58.698Z,27.84
2022-11-02T14:43:44.194Z,27.85
2022-11-02T14:46:10.883Z,27.43
2022-11-02T14:48:54.277Z,27.85
2022-11-02T14:51:26.418Z,27.23
2022-11-02T14:53:59.053Z,27.64
2022-11-02T14:56:51.782Z,27.08
2022-11-02T14:59:29.005Z,27.14
2022-11-02T15:02:07.042Z,27.12
2022-11-02T15:04:35.812Z,27.15
2022-11-02T15:07:05.198Z,26.69
2022-11-02T15:09:50.614Z,26.56
2022-11-02T15:12:27.978Z,26.38
2022-11-02T15:15:05.420Z,26.86
2022-11-02T15:17:32.237Z,26.61
2022-11-02T15:19:58.854Z,26.21
2022-11-02T15:22:31.992Z,26.71
2022-11-02T15:25:05.056Z,26.55
2022-11-02T15:27:34.544Z,25.90
2022-11-02T15:30:02.688Z,25.87
2022-11-02T15:32:34.470Z,25.78
2022-11-02T15:35:02.295Z,25.46
2022-11-02T15:37:37.320Z,25.56
2022-11-02T15:40:27.373Z,25.68
2022-11-02T15:43:34.009Z,25.68
2022-11-02T15:46:09.528Z,25.64
2022-11-02T15:49:12.257Z,25.99
2022-11-02T15:52:05.164Z,25.52
2022-11-02T15:54:46.263Z,25.75
2022-11-02T15:57:38.652Z,25.60
2022-11-02T16:00:30.237Z,25.51
2022-11-02T16:03:03.380Z,25.65
2022-11-02T16:05:38.945Z,25.70
2022-11-02T16:08:22.147Z,25.59
2022-11-02T16:10:49.725Z,25.50
2022-11-02T16:13:20.625Z,25.51
2022-11-02T16:15:48.978Z,25.12
2022-11-02T16:18:24.109Z,24.96
2022-11-02T16:20:51.761Z,24.97
2022-11-02T16:23:27.097Z,25.04
2022-11-02T16:25:56.441Z,24.68
2022-11-02T16:28:24.594Z,24.55
2022-11-02T16:31:17.352Z,24.75
2022-11-02T16:33:51.554Z,24.54
2022-11-02T16:36:21.614Z,24.76
2022-11-02T16:39:16.893Z,24.56
2022-11-02T16:41:52.548Z,24.60
2022-11-02T16:44:31.009Z,24.24
2022-11-02T16:47:00.861Z,24.57
2022-11-02T16:49:28.637Z,24.60
2022-11-02T16:54:48.774Z,24.29
2022-11-02T16:57:19.902Z,24.29
2022-11-02T17:00:17.680Z,24.07
2022-11-02T17:02:45.196Z,23.95
2022-11-02T17:05:19.830Z,23.95
2022-11-02T17:08:13.409Z,24.05
2022-11-02T17:10:40.465Z,23.63
2022-11-02T17:13:20.478Z,23.92
2022-11-02T17:15:50.434Z,23.81
2022-11-02T17:18:22.999Z,23.58
2022-11-02T17:21:12.746Z,23.96
2022-11-02T17:23:49.689Z,23.80
2022-11-02T17:26:22.783Z,23.65
2022-11-02T17:28:51.485Z,23.72
2022-11-02T17:31:22.378Z,23.49
2022-11-02T17:33:49.996Z,23.83
2022-11-02T17:36:17.414Z,23.83
2022-11-02T17:38:44.555Z,23.64
2022-11-02T17:41:36.370Z,23.75
2022-11-02T17:44:03.892Z,23.76
2022-11-02T17:46:30.556Z,23.76
2022-11-02T17:48:57.803Z,23.27
2022-11-02T17:51:25.681Z,23.62
2022-11-02T17:53:52.751Z,23.80
2022-11-02T17:56:19.517Z,23.25
2022-11-02T17:58:46.457Z,23.29
2022-11-02T18:01:13.919Z,23.42
2022-11-02T18:03:41.541Z,23.36
2022-11-02T18:06:08.275Z,23.54
2022-11-02T18:08:55.023Z,23.53
2022-11-02T18:11:26.003Z,23.50
2022-11-02T18:13:53.901Z,23.14
2022-11-02T18:16:20.792Z,23.11
2022-11-02T18:18:47.625Z,23.20
2022-11-02T18:21:14.304Z,23.42
2022-11-02T18:23:41.738Z,23.21
2022-11-02T18:26:11.522Z,23.17
2022-11-02T18:28:38.912Z,23.09
2022-11-02T18:31:07.083Z,23.14
2022-11-02T18:33:34.517Z,23.05
2022-11-02T18:36:09.455Z,22.78
2022-11-02T18:38:37.329Z,22.95
2022-11-02T18:41:25.771Z,23.01
2022-11-02T18:43:53.678Z,22.94
2022-11-02T18:46:20.459Z,22.69
2022-11-02T18:48:47.540Z,23.12
2022-11-02T18:51:14.327Z,22.82
2022-11-02T18:53:41.156Z,22.77
2022-11-02T18:56:09.619Z,22.87
2022-11-02T18:58:36.499Z,22.75
2022-11-02T19:01:11.090Z,22.83
2022-11-02T19:03:38.243Z,22.48
2022-11-02T19:06:24.166Z,22.50
2022-11-02T19:09:09.520Z,22.86
2022-11-02T19:11:36.657Z,22.71
2022-11-02T19:14:05.084Z,23.02
2022-11-02T19:16:32.764Z,23.05
2022-11-02T19:18:59.665Z,23.23
2022-11-02T19:21:26.620Z,23.05
2022-11-02T19:23:53.327Z,23.06
2022-11-02T19:26:20.211Z,23.10
2022-11-02T19:28:47.011Z,22.67
2022-11-02T19:31:14.256Z,22.32
2022-11-02T19:33:41.110Z,22.73
2022-11-02T19:36:08.296Z,22.60
2022-11-02T19:38:38.914Z,22.74
2022-11-02T19:41:13.743Z,22.70
2022-11-02T19:43:42.873Z,22.63
2022-11-02T19:46:21.051Z,22.50
2022-11-02T19:48:48.749Z,22.64
2022-11-02T19:51:20.367Z,22.91
2022-11-02T19:53:50.216Z,22.68
2022-11-02T19:56:18.797Z,22.74
2022-11-02T19:58:47.646Z,22.52
2022-11-02T20:01:20.448Z,22.47
2022-11-02T20:03:47.819Z,22.70
2022-11-02T20:06:23.091Z,22.40
2022-11-02T20:08:54.408Z,22.15
2022-11-02T20:11:22.739Z,22.27
2022-11-02T20:13:50.259Z,21.68
2022-11-02T20:16:19.235Z,22.24
2022-11-02T20:18:50.275Z,22.10
2022-11-02T20:21:30.229Z,22.14
2022-11-02T20:24:00.990Z,22.08
2022-11-02T20:26:31.535Z,22.01
2022-11-02T20:29:00.638Z,21.82
2022-11-02T20:31:33.090Z,21.58
2022-11-02T20:34:00.937Z,21.94
2022-11-02T20:36:28.454Z,21.83
2022-11-02T20:38:56.341Z,22.12
2022-11-02T20:41:24.357Z,22.26
2022-11-02T20:43:53.001Z,22.33
2022-11-02T20:46:39.918Z,22.12
2022-11-02T20:49:21.662Z,22.12
2022-11-02T20:51:53.078Z,21.89
2022-11-02T20:54:22.180Z,21.72
2022-11-02T20:56:49.979Z,21.51
2022-11-02T20:59:17.615Z,22.01
2022-11-02T21:01:44.786Z,22.05
2022-11-02T21:04:18.273Z,21.90
2022-11-02T21:06:47.919Z,22.18
2022-11-02T21:09:14.753Z,22.08
2022-11-02T21:12:00.132Z,21.89
2022-11-02T21:14:26.990Z,22.07
2022-11-02T21:16:53.665Z,22.43
2022-11-02T21:19:20.685Z,22.34
2022-11-02T21:21:47.382Z,22.22
2022-11-02T21:24:15.195Z,22.36
2022-11-02T21:26:41.953Z,22.02
2022-11-02T21:29:09.250Z,21.82
2022-11-02T21:31:35.977Z,22.03
2022-11-02T21:34:02.839Z,21.81
2022-11-02T21:36:30.344Z,22.03
2022-11-02T21:38:58.827Z,22.06
2022-11-02T21:41:28.733Z,22.11
2022-11-02T21:43:56.124Z,22.17
2022-11-02T21:46:24.163Z,22.08
2022-11-02T21:48:51.166Z,21.90
2022-11-02T21:51:22.368Z,22.17
2022-11-02T21:53:50.757Z,22.22
2022-11-02T21:56:20.010Z,21.80
2022-11-02T21:58:47.719Z,21.78
2022-11-02T22:01:34.955Z,21.93
2022-11-02T22:04:02.728Z,21.68
2022-11-02T22:06:31.581Z,21.61
2022-11-02T22:08:59.738Z,21.59
2022-11-02T22:11:27.540Z,21.65
2022-11-02T22:13:56.791Z,21.77
2022-11-02T22:16:35.259Z,21.64
2022-11-02T22:19:13.476Z,21.52
2022-11-02T22:21:43.237Z,21.54
2022-11-02T22:24:10.682Z,21.53
2022-11-02T22:26:38.704Z,21.50
2022-11-02T22:29:06.487Z,20.87
2022-11-02T22:31:35.603Z,21.06
2022-11-02T22:34:03.999Z,21.11
2022-11-02T22:36:33.164Z,20.98
2022-11-02T22:39:01.595Z,21.10
2022-11-02T22:41:37.546Z,20.82
2022-11-02T22:44:09.654Z,21.03
2022-11-02T22:46:39.520Z,21.14
2022-11-02T22:49:07.867Z,20.93
2022-11-02T22:51:40.399Z,21.00
2022-11-02T22:54:10.018Z,21.02
2022-11-02T22:56:38.016Z,20.84
2022-11-02T22:59:05.151Z,20.94
2022-11-02T23:01:33.768Z,21.12
2022-11-02T23:04:01.346Z,21.17
2022-11-02T23:06:28.711Z,21.23
2022-11-02T23:08:57.760Z,21.28
2022-11-02T23:11:30.419Z,21.27
2022-11-02T23:14:12.972Z,21.28
2022-11-02T23:16:46.945Z,21.24
2022-11-02T23:19:29.595Z,21.25
2022-11-02T23:22:29.366Z,21.18
2022-11-02T23:25:18.058Z,21.22
2022-11-02T23:28:05.702Z,20.96
2022-11-02T23:30:55.586Z,21.07
2022-11-02T23:33:24.943Z,20.97
2022-11-02T23:36:10.276Z,21.16
2022-11-02T23:39:03.353Z,20.91
2022-11-02T23:41:31.648Z,20.75
2022-11-02T23:44:14.514Z,20.84
2022-11-02T23:46:43.320Z,20.60
2022-11-02T23:49:11.126Z,20.83
2022-11-02T23:51:56.649Z,20.95
2022-11-02T23:54:42.179Z,20.84
2022-11-02T23:57:09.034Z,21.05
2022-11-02T23:59:35.706Z,20.99
